Time;durP1;ratioP1;P1;durP2;ratioP2;P2;SDS_P1;SDS_P2;PMS_P1;PMS_P2;Temp;Humidity;BMP_temperature;BMP_pressure;BME280_temperature;BME280_humidity;BME280_pressure;Samples;Min_cycle;Max_cycle;Signal;HPM_P1;HPM_P2
2023/07/31 00:01:15;;;;;;;46.95;10.85;;;;;;;14.78;100.00;100897.88;5097092;28;20031;-93
2023/07/31 00:03:43;;;;;;;48.77;10.27;;;;;;;14.77;100.00;100902.53;5114407;28;20055;-93
2023/07/31 00:06:08;;;;;;;42.78;10.50;;;;;;;14.80;100.00;100901.22;5113668;28;20031;-92
2023/07/31 00:08:33;;;;;;;44.85;9.77;;;;;;;14.78;100.00;100900.63;5113273;28;20034;-93
2023/07/31 00:11:01;;;;;;;40.53;10.13;;;;;;;14.78;100.00;100904.19;5113972;28;20027;-93
2023/07/31 00:13:30;;;;;;;49.15;9.52;;;;;;;14.77;100.00;100904.44;5113766;28;20028;-94
2023/07/31 00:15:55;;;;;;;41.43;9.90;;;;;;;14.74;100.00;100909.28;5113846;28;20072;-93
2023/07/31 00:18:23;;;;;;;44.58;9.15;;;;;;;14.73;100.00;100904.94;5113588;28;20035;-93
2023/07/31 00:20:54;;;;;;;34.58;8.90;;;;;;;14.75;100.00;100899.22;5113514;28;20050;-93
2023/07/31 00:23:19;;;;;;;41.43;9.80;;;;;;;14.74;100.00;100900.28;5096880;28;20112;-93
2023/07/31 00:25:55;;;;;;;;;;;;;;;;;;;;;
2023/07/31 00:28:23;;;;;;;36.83;8.40;;;;;;;14.75;100.00;100904.69;5114049;28;20043;-93
2023/07/31 00:30:53;;;;;;;44.20;7.93;;;;;;;14.73;100.00;100896.75;5097071;28;20044;-93
2023/07/31 00:33:27;;;;;;;40.17;8.80;;;;;;;14.74;100.00;100900.28;5113172;28;20028;-93
2023/07/31 00:36:00;;;;;;;40.42;9.02;;;;;;;14.74;100.00;100894.81;5081169;28;20050;-94
2023/07/31 00:38:36;;;;;;;40.15;9.43;;;;;;;14.71;100.00;100885.22;5112959;28;20047;-93
2023/07/31 00:41:01;;;;;;;39.78;8.70;;;;;;;14.71;100.00;100890.66;5096053;28;20419;-93
2023/07/31 00:43:26;;;;;;;29.37;8.13;;;;;;;14.70;100.00;100893.63;5113491;28;20024;-93
2023/07/31 00:45:55;;;;;;;35.03;7.83;;;;;;;14.72;100.00;100891.53;5114178;28;20032;-93
2023/07/31 00:48:42;;;;;;;31.33;8.20;;;;;;;14.68;100.00;100902.06;5112879;28;20031;-94
2023/07/31 00:51:10;;;;;;;32.25;7.70;;;;;;;14.69;100.00;100892.81;5113617;28;20039;-93
2023/07/31 00:53:58;;;;;;;32.83;7.38;;;;;;;14.71;100.00;100898.03;5113588;28;20031;-93
2023/07/31 00:56:25;;;;;;;25.07;6.70;;;;;;;14.70;100.00;100894.50;5113705;28;20030;-93
2023/07/31 00:58:55;;;;;;;29.75;6.97;;;;;;;14.73;100.00;100887.69;5113218;28;20080;-93
2023/07/31 01:01:26;;;;;;;34.95;6.95;;;;;;;14.71;100.00;100892.59;5113374;28;20054;-93
2023/07/31 01:03:55;;;;;;;29.65;7.85;;;;;;;14.70;100.00;100883.56;5095855;28;20071;-93
2023/07/31 01:06:43;;;;;;;27.90;6.43;;;;;;;14.70;100.00;100878.09;5113344;28;20023;-93
2023/07/31 01:09:28;;;;;;;30.13;6.60;;;;;;;14.68;100.00;100887.59;5113165;28;20028;-93
2023/07/31 01:12:07;;;;;;;;;;;;;;;;;;;;;
2023/07/31 01:14:38;;;;;;;24.90;6.70;;;;;;;14.69;100.00;100876.44;5114221;28;20042;-93
2023/07/31 01:17:10;;;;;;;27.25;6.47;;;;;;;14.67;100.00;100872.28;5113483;28;20035;-93
2023/07/31 01:19:38;;;;;;;25.77;7.22;;;;;;;14.69;100.00;100872.84;5112605;28;20036;-94
2023/07/31 01:22:35;;;;;;;26.73;6.10;;;;;;;14.69;100.00;100876.44;5112308;28;20031;-93
2023/07/31 01:25:11;;;;;;;25.90;6.30;;;;;;;14.70;100.00;100894.50;5102021;28;20052;-92
2023/07/31 01:27:50;;;;;;;21.02;5.93;;;;;;;14.72;100.00;100875.13;5113520;28;20041;-93
2023/07/31 01:30:24;;;;;;;17.08;5.95;;;;;;;14.73;100.00;100874.88;5113113;28;20050;-93
2023/07/31 01:33:01;;;;;;;19.40;6.25;;;;;;;14.72;100.00;100873.22;5113521;28;20123;-94
2023/07/31 01:35:31;;;;;;;24.17;6.37;;;;;;;14.72;100.00;100883.31;5114229;28;20089;-94
2023/07/31 01:37:59;;;;;;;24.98;6.35;;;;;;;14.71;100.00;100868.81;5116982;28;20056;-93
2023/07/31 01:40:27;;;;;;;22.80;6.05;;;;;;;14.71;100.00;100887.94;5116854;28;20488;-93
2023/07/31 01:43:01;;;;;;;23.50;6.10;;;;;;;14.73;100.00;100879.50;5099825;28;20023;-94
2023/07/31 01:45:29;;;;;;;19.40;4.72;;;;;;;14.70;100.00;100874.53;5117153;28;20042;-93
2023/07/31 01:47:55;;;;;;;24.80;5.87;;;;;;;14.69;100.00;100870.13;5115812;28;20061;-93
2023/07/31 01:50:28;;;;;;;18.67;6.03;;;;;;;14.68;100.00;100873.94;5116438;28;20027;-93
2023/07/31 01:52:55;;;;;;;23.77;6.00;;;;;;;14.67;100.00;100872.28;5117462;28;20511;-94
2023/07/31 01:55:21;;;;;;;27.52;5.82;;;;;;;14.65;100.00;100868.97;5099682;28;20024;-93
2023/07/31 01:57:56;;;;;;;;;;;;;;;;;;;;;
2023/07/31 02:00:27;;;;;;;18.23;5.57;;;;;;;14.62;100.00;100859.38;5118369;28;20032;-92
2023/07/31 02:02:58;;;;;;;28.67;5.90;;;;;;;14.61;100.00;100857.69;5116213;28;20122;-93
2023/07/31 02:05:26;;;;;;;19.70;5.68;;;;;;;14.61;100.00;100851.38;5116302;28;20028;-94
2023/07/31 02:07:54;;;;;;;26.63;7.05;;;;;;;14.59;100.00;100848.06;5117313;28;20035;-93
2023/07/31 02:10:23;;;;;;;28.58;6.65;;;;;;;14.56;100.00;100847.47;5116079;28;20070;-94
2023/07/31 02:12:58;;;;;;;23.03;6.63;;;;;;;14.56;100.00;100849.38;5116311;28;20023;-94
2023/07/31 02:15:26;;;;;;;24.38;6.40;;;;;;;14.55;100.00;100839.53;5116441;28;20027;-94
2023/07/31 02:17:51;;;;;;;19.42;5.75;;;;;;;14.57;100.00;100831.91;5115915;28;20032;-94
2023/07/31 02:20:17;;;;;;;20.07;5.40;;;;;;;14.58;100.00;100833.56;5099644;28;20027;-93
2023/07/31 02:22:42;;;;;;;25.25;6.05;;;;;;;14.57;100.00;100826.44;5116222;28;20023;-93
2023/07/31 02:25:13;;;;;;;24.93;6.53;;;;;;;14.58;100.00;100833.56;5116219;28;20528;-94
2023/07/31 02:27:38;;;;;;;21.40;6.57;;;;;;;14.55;100.00;100823.97;5099130;28;20039;-93
2023/07/31 02:30:04;;;;;;;20.13;5.57;;;;;;;14.55;100.00;100832.16;5115875;28;20028;-93
2023/07/31 02:32:29;;;;;;;20.33;5.90;;;;;;;14.54;100.00;100825.06;5115941;28;20065;-93
2023/07/31 02:34:55;;;;;;;22.33;6.00;;;;;;;14.54;100.00;100827.78;5115517;28;20066;-93
2023/07/31 02:37:21;;;;;;;18.33;5.72;;;;;;;14.59;100.00;100818.88;5115446;28;20071;-93
2023/07/31 02:39:46;;;;;;;20.73;5.73;;;;;;;14.57;100.00;100807.34;5116062;28;20027;-93
2023/07/31 02:42:14;;;;;;;19.30;5.40;;;;;;;14.56;100.00;100803.78;5116279;28;20488;-93
2023/07/31 02:44:42;;;;;;;19.50;5.75;;;;;;;14.59;100.00;100815.31;5098711;28;20031;-93
2023/07/31 02:47:08;;;;;;;20.67;5.63;;;;;;;14.57;100.00;100813.66;5115323;28;20110;-93
2023/07/31 02:49:33;;;;;;;22.87;5.97;;;;;;;14.56;100.00;100820.16;5115208;28;20047;-93
2023/07/31 02:52:02;;;;;;;23.17;5.55;;;;;;;14.56;100.00;100808.44;5115416;28;20028;-93
2023/07/31 02:54:27;;;;;;;20.60;6.03;;;;;;;14.57;100.00;100807.34;5098227;28;20031;-93
2023/07/31 02:56:53;;;;;;;26.23;5.73;;;;;;;14.57;100.00;100810.91;5115578;28;20474;-92
2023/07/31 02:59:18;;;;;;;22.13;6.13;;;;;;;14.59;100.00;100810.66;5115496;28;20030;-93
2023/07/31 03:01:53;;;;;;;22.17;6.25;;;;;;;14.61;100.00;100802.22;5114993;28;20023;-93
2023/07/31 03:04:21;;;;;;;23.67;5.70;;;;;;;14.61;100.00;100802.22;5115748;28;20042;-93
2023/07/31 03:06:46;;;;;;;18.77;5.10;;;;;;;14.59;100.00;100802.47;5115457;28;20028;-93
2023/07/31 03:09:19;;;;;;;23.35;6.50;;;;;;;14.59;100.00;100801.66;5114800;28;20020;-92
2023/07/31 03:11:45;;;;;;;18.23;5.20;;;;;;;14.58;100.00;100798.06;5115541;28;20375;-93
2023/07/31 03:14:10;;;;;;;21.27;5.87;;;;;;;14.60;100.00;100797.84;5115321;28;20020;-93
2023/07/31 03:16:40;;;;;;;19.80;5.43;;;;;;;14.59;100.00;100794.28;5115151;28;20456;-93
2023/07/31 03:19:13;;;;;;;16.40;5.25;;;;;;;14.60;100.00;100801.41;5114831;28;20032;-93
2023/07/31 03:21:39;;;;;;;17.52;5.53;;;;;;;14.60;100.00;100793.22;5115346;28;20023;-93
2023/07/31 03:24:07;;;;;;;22.90;5.87;;;;;;;14.62;100.00;100793.81;5115272;28;20471;-93
2023/07/31 03:26:33;;;;;;;21.17;5.22;;;;;;;14.62;100.00;100799.28;5115098;28;20030;-93
2023/07/31 03:29:01;;;;;;;19.40;5.27;;;;;;;14.63;100.00;100792.75;5114837;28;20091;-94
2023/07/31 03:31:34;;;;;;;19.92;5.55;;;;;;;14.65;100.00;100804.25;5114462;28;20039;-94
2023/07/31 03:34:04;;;;;;;20.30;6.32;;;;;;;14.70;100.00;100781.69;5116010;28;20475;-93
2023/07/31 03:36:30;;;;;;;17.85;5.40;;;;;;;14.70;100.00;100777.06;5114556;28;20039;-93
2023/07/31 03:38:59;;;;;;;19.10;5.77;;;;;;;14.73;100.00;100783.91;5114641;28;20047;-93
2023/07/31 03:41:27;;;;;;;22.77;5.43;;;;;;;14.73;100.00;100781.19;5114670;28;20421;-93
2023/07/31 03:43:53;;;;;;;20.67;5.38;;;;;;;14.74;100.00;100775.47;5114657;28;20027;-93
2023/07/31 03:46:21;;;;;;;21.83;5.23;;;;;;;14.78;100.00;100777.72;5114378;28;20027;-93
2023/07/31 03:48:50;;;;;;;19.92;5.40;;;;;;;14.80;100.00;100765.47;5114322;28;20084;-93
2023/07/31 03:51:16;;;;;;;18.55;5.45;;;;;;;14.82;100.00;100768.81;5114500;28;20112;-93
2023/07/31 03:53:44;;;;;;;18.50;5.53;;;;;;;14.86;100.00;100769.13;5114345;28;20024;-94
2023/07/31 03:56:10;;;;;;;24.08;5.45;;;;;;;14.87;100.00;100759.88;5114275;28;20023;-93
2023/07/31 03:58:36;;;;;;;19.52;5.43;;;;;;;14.91;100.00;100758.28;5113397;28;20448;-93
2023/07/31 04:01:05;;;;;;;24.40;5.40;;;;;;;14.91;100.00;100744.63;5113917;28;20020;-93
2023/07/31 04:03:30;;;;;;;21.80;5.83;;;;;;;14.96;100.00;100749.38;5114309;28;20110;-94
2023/07/31 04:05:56;;;;;;;19.35;5.65;;;;;;;14.96;100.00;100747.47;5114289;28;20483;-93
2023/07/31 04:08:23;;;;;;;22.77;5.77;;;;;;;14.99;100.00;100743.41;5093640;28;20055;-93
2023/07/31 04:10:53;;;;;;;27.67;6.30;;;;;;;15.01;100.00;100752.19;5093267;28;20480;-93
2023/07/31 04:13:19;;;;;;;19.80;6.07;;;;;;;15.05;100.00;100745.97;5110498;28;20035;-93
2023/07/31 04:15:54;;;;;;;21.50;5.60;;;;;;;15.06;100.00;100735.88;5093399;28;20020;-93
2023/07/31 04:18:20;;;;;;;23.52;6.28;;;;;;;15.08;100.00;100737.28;5076067;28;20051;-93
2023/07/31 04:20:48;;;;;;;18.75;5.78;;;;;;;15.11;100.00;100735.97;5076554;28;20109;-93
2023/07/31 04:23:13;;;;;;;19.50;5.15;;;;;;;15.17;100.00;100739.59;5076407;28;20040;-93
2023/07/31 04:25:38;;;;;;;23.73;5.87;;;;;;;15.18;100.00;100720.22;5093461;28;20383;-93
2023/07/31 04:28:04;;;;;;;18.30;5.27;;;;;;;15.23;100.00;100731.22;5093757;28;20036;-93
2023/07/31 04:30:30;;;;;;;18.40;5.20;;;;;;;15.27;100.00;100732.38;5093068;28;20495;-93
2023/07/31 04:32:58;;;;;;;19.57;4.73;;;;;;;15.29;100.00;100732.13;5110237;28;20069;-93
2023/07/31 04:35:28;;;;;;;17.25;4.80;;;;;;;15.32;100.00;100733.56;5093197;28;20052;-93
2023/07/31 04:37:54;;;;;;;18.10;5.50;;;;;;;15.33;100.00;100725.09;5076784;28;20059;-94
2023/07/31 04:40:19;;;;;;;20.53;5.10;;;;;;;15.25;100.00;100718.16;5093735;28;20032;-93
2023/07/31 04:42:47;;;;;;;22.93;5.70;;;;;;;15.18;100.00;100714.75;5092957;28;20468;-93
2023/07/31 04:45:12;;;;;;;17.85;5.93;;;;;;;15.13;100.00;100716.59;5093396;28;20082;-92
2023/07/31 04:47:40;;;;;;;19.20;5.63;;;;;;;15.14;100.00;100705.41;5094279;28;20024;-93
2023/07/31 04:50:06;;;;;;;13.70;5.80;;;;;;;15.21;100.00;100708.78;5109873;28;20044;-93
2023/07/31 04:52:32;;;;;;;21.23;6.10;;;;;;;15.26;100.00;100702.56;5094264;28;20681;-93
2023/07/31 04:54:57;;;;;;;19.80;4.90;;;;;;;15.30;100.00;100697.44;5093008;28;20123;-93
2023/07/31 04:57:23;;;;;;;21.27;5.70;;;;;;;15.35;100.00;100700.25;5076383;28;20055;-93
2023/07/31 04:59:56;;;;;;;14.07;5.27;;;;;;;15.38;100.00;100697.84;5076998;28;20032;-94
2023/07/31 05:02:22;;;;;;;16.95;5.70;;;;;;;15.34;100.00;100695.84;5093002;28;20119;-94
2023/07/31 05:05:01;;;;;;;18.70;6.27;;;;;;;15.26;100.00;100702.56;5093130;28;20024;-95
2023/07/31 05:07:29;;;;;;;17.98;6.05;;;;;;;15.15;100.00;100684.38;5078153;28;20075;-96
2023/07/31 05:09:57;;;;;;;22.08;6.63;;;;;;;15.08;100.00;100698.19;5094919;28;20043;-96
2023/07/31 05:12:31;;;;;;;21.08;6.65;;;;;;;15.02;100.00;100691.81;5097403;28;20031;-95
2023/07/31 05:14:58;;;;;;;20.17;6.70;;;;;;;15.00;100.00;100687.69;5081073;28;20483;-96
2023/07/31 05:17:27;;;;;;;25.27;6.45;;;;;;;14.99;100.00;100683.31;5098281;28;20050;-95
2023/07/31 05:19:52;;;;;;;23.98;7.20;;;;;;;14.99;100.00;100686.03;5096846;28;20127;-95
2023/07/31 05:22:18;;;;;;;18.83;6.33;;;;;;;14.96;100.00;100670.97;5097272;28;20471;-94
2023/07/31 05:24:43;;;;;;;20.45;6.85;;;;;;;14.94;100.00;100691.41;5096943;28;20028;-93
2023/07/31 05:27:09;;;;;;;19.53;6.40;;;;;;;14.95;100.00;100685.69;5096804;28;20035;-93
2023/07/31 05:29:35;;;;;;;21.17;6.57;;;;;;;14.94;100.00;100692.25;5096905;28;20506;-94
2023/07/31 05:32:01;;;;;;;20.73;6.90;;;;;;;14.95;100.00;100682.97;5097161;28;20046;-95
2023/07/31 05:34:27;;;;;;;16.70;6.95;;;;;;;14.98;100.00;100687.13;5097076;28;20027;-96
2023/07/31 05:36:54;;;;;;;13.67;6.27;;;;;;;14.96;100.00;100692.00;5096689;28;20445;-92
2023/07/31 05:39:25;;;;;;;19.08;6.22;;;;;;;14.94;100.00;100688.69;5095946;28;20468;-95
2023/07/31 05:41:53;;;;;;;18.60;5.07;;;;;;;14.94;100.00;100683.22;5096831;28;20042;-95
2023/07/31 05:44:34;;;;;;;;;;;;;;;;;;;;;
2023/07/31 05:47:45;;;;;;;;;;;;;;;;;;;;;
2023/07/31 05:57:51;;;;;;;;;;;;;;;;;;;;;
2023/07/31 06:03:20;;;;;;;13.45;5.03;;;;;;;14.96;100.00;100664.69;5363341;22;20060;-96
2023/07/31 06:09:39;;;;;;;12.68;4.40;;;;;;;14.98;100.00;100657.06;4946165;29;20587;-96
2023/07/31 06:12:55;;;;;;;14.18;4.10;;;;;;;14.96;100.00;100661.97;5017701;28;20034;-96
2023/07/31 06:19:32;;;;;;;11.85;4.93;;;;;;;14.96;100.00;100657.31;4900713;29;20145;-96
2023/07/31 06:22:33;;;;;;;;;;;;;;;;;;;;;
2023/07/31 06:28:03;;;;;;;18.02;5.25;;;;;;;15.07;100.00;100650.09;4867859;29;20078;-96
2023/07/31 06:30:47;;;;;;;13.88;6.75;;;;;;;15.08;100.00;100651.75;4906425;29;20082;-96
2023/07/31 06:33:32;;;;;;;;;;;;;;;;;;;;;
2023/07/31 06:36:13;;;;;;;15.30;7.10;;;;;;;15.13;100.00;100646.34;4970646;28;20042;-96
2023/07/31 06:39:48;;;;;;;;;;;;;;;;;;;;;
2023/07/31 06:43:06;;;;;;;14.68;7.50;;;;;;;15.20;100.00;100643.47;4899011;29;20059;-96
2023/07/31 07:20:31;;;;;;;13.35;6.45;;;;;;;15.28;100.00;100612.97;4826610;29;20052;-93
2023/07/31 07:23:40;;;;;;;;;;;;;;;;;;;;;
2023/07/31 07:33:49;;;;;;;;;;;;;;;;;;;;;
2023/07/31 07:36:47;;;;;;;14.95;7.32;;;;;;;15.27;100.00;100601.19;4995738;28;20045;-96
2023/07/31 07:39:20;;;;;;;17.25;7.68;;;;;;;15.30;100.00;100610.00;4965960;28;20034;-96
2023/07/31 07:41:46;;;;;;;19.50;8.47;;;;;;;15.30;100.00;100596.31;5031681;28;20037;-93
2023/07/31 07:44:17;;;;;;;19.23;8.30;;;;;;;15.26;100.00;100626.88;5018394;28;20045;-96
2023/07/31 07:46:45;;;;;;;22.80;9.10;;;;;;;15.25;100.00;100613.44;5018534;28;20025;-95
2023/07/31 07:49:22;;;;;;;18.30;8.57;;;;;;;15.26;100.00;100601.44;5035270;28;20025;-96
2023/07/31 07:51:48;;;;;;;21.33;8.32;;;;;;;15.27;100.00;100617.59;5034644;28;20377;-96
2023/07/31 07:54:21;;;;;;;24.00;9.50;;;;;;;15.31;100.00;100597.94;5034662;28;20025;-96
2023/07/31 07:56:46;;;;;;;24.98;9.82;;;;;;;15.25;100.00;100605.25;5034321;28;20045;-93
2023/07/31 07:59:12;;;;;;;18.75;8.30;;;;;;;15.23;100.00;100602.78;5033725;28;20087;-92
2023/07/31 08:01:39;;;;;;;21.07;7.90;;;;;;;15.21;100.00;100606.84;5033074;28;20029;-91
2023/07/31 08:04:08;;;;;;;23.58;9.07;;;;;;;15.23;100.00;100605.50;5033087;28;20025;-91
2023/07/31 08:06:36;;;;;;;18.85;8.73;;;;;;;15.30;100.00;100612.72;5029637;28;20048;-92
2023/07/31 08:09:06;;;;;;;22.97;9.50;;;;;;;15.26;100.00;100602.28;5030080;28;20477;-93
2023/07/31 08:15:17;;;;;;;;;;;;;;;;;;;;;
2023/07/31 08:18:06;;;;;;;23.02;9.38;;;;;;;15.36;100.00;100595.31;5035394;28;20040;-95
2023/07/31 08:23:34;;;;;;;21.40;8.43;;;;;;;15.32;100.00;100591.41;5013388;28;20038;-94
2023/07/31 08:26:22;;;;;;;15.30;8.10;;;;;;;15.33;100.00;100588.44;5015427;28;20034;-96
2023/07/31 08:28:53;;;;;;;19.48;8.85;;;;;;;15.34;100.00;100594.72;5014741;28;20172;-94
2023/07/31 08:31:29;;;;;;;23.85;9.00;;;;;;;15.36;100.00;100593.38;5029186;28;20045;-95
2023/07/31 08:34:12;;;;;;;21.10;8.93;;;;;;;15.40;100.00;100591.00;5018051;28;20132;-96
2023/07/31 08:36:51;;;;;;;24.37;9.70;;;;;;;15.36;100.00;100587.09;5032855;28;20056;-95
2023/07/31 08:39:39;;;;;;;19.23;9.45;;;;;;;15.37;100.00;100596.97;5018037;28;20049;-96
2023/07/31 08:42:13;;;;;;;22.88;9.25;;;;;;;15.35;100.00;100596.38;5001069;28;20080;-95
2023/07/31 08:44:56;;;;;;;;;;;;;;;;;;;;;
2023/07/31 08:47:26;;;;;;;27.20;9.60;;;;;;;15.32;100.00;100596.88;5035836;28;20473;-94
2023/07/31 08:49:52;;;;;;;24.73;9.20;;;;;;;15.34;100.00;100589.25;5032603;28;20485;-94
2023/07/31 08:52:31;;;;;;;23.55;9.80;;;;;;;15.34;100.00;100590.09;5033184;28;20068;-94
2023/07/31 08:55:10;;;;;;;;;;;;;;;;;;;;;
2023/07/31 08:57:38;;;;;;;23.48;9.75;;;;;;;15.36;100.00;100595.31;5032021;28;20392;-93
2023/07/31 09:00:09;;;;;;;23.17;10.48;;;;;;;15.42;100.00;100575.97;5033700;28;20037;-91
2023/07/31 09:03:02;;;;;;;21.00;9.73;;;;;;;15.49;100.00;100588.63;5032392;28;20045;-92
2023/07/31 09:05:39;;;;;;;21.73;9.80;;;;;;;15.52;100.00;100585.38;5032619;28;20087;-93
2023/07/31 09:08:08;;;;;;;23.27;9.82;;;;;;;15.52;100.00;100588.13;5032583;28;20026;-93
2023/07/31 09:10:41;;;;;;;25.33;9.85;;;;;;;15.49;100.00;100581.25;5032736;28;20021;-93
2023/07/31 09:13:30;;;;;;;;;;;;;;;;;;;;;
2023/07/31 09:15:55;;;;;;;19.50;9.33;;;;;;;15.58;100.00;100574.25;5034555;28;20067;-93
2023/07/31 09:18:22;;;;;;;16.45;9.00;;;;;;;15.60;100.00;100572.09;5032955;28;20116;-93
2023/07/31 09:21:08;;;;;;;19.63;8.80;;;;;;;15.58;100.00;100581.63;5032789;28;20030;-92
2023/07/31 09:23:47;;;;;;;17.05;8.45;;;;;;;15.66;100.00;100572.16;5030115;28;20057;-93
2023/07/31 09:26:51;;;;;;;17.50;8.13;;;;;;;15.74;100.00;100582.63;5016802;28;20535;-92
2023/07/31 09:29:21;;;;;;;20.08;8.68;;;;;;;15.70;100.00;100576.03;5031532;28;20060;-91
2023/07/31 09:31:50;;;;;;;17.25;8.45;;;;;;;15.79;100.00;100567.13;5032386;28;20092;-91
2023/07/31 09:34:16;;;;;;;18.83;7.77;;;;;;;15.85;100.00;100567.19;5032085;28;20025;-91
2023/07/31 09:36:51;;;;;;;16.05;8.15;;;;;;;15.89;100.00;100571.88;5033523;28;20132;-91
2023/07/31 09:39:20;;;;;;;13.77;6.93;;;;;;;15.91;100.00;100566.97;5033558;28;20109;-92
2023/07/31 09:41:54;;;;;;;14.70;7.32;;;;;;;15.91;100.00;100564.22;5032273;28;20037;-91
2023/07/31 09:44:22;;;;;;;11.03;6.30;;;;;;;15.95;100.00;100562.63;5032270;28;20029;-91
2023/07/31 09:46:50;;;;;;;15.10;7.03;;;;;;;16.02;100.00;100561.59;5015907;28;20396;-91
2023/07/31 09:49:18;;;;;;;12.95;6.70;;;;;;;16.02;100.00;100561.59;5031304;28;20030;-91
2023/07/31 09:51:43;;;;;;;12.63;6.47;;;;;;;16.05;100.00;100553.72;5031692;28;20034;-92
2023/07/31 09:54:20;;;;;;;13.13;6.30;;;;;;;16.11;100.00;100555.41;5033055;28;20112;-92
2023/07/31 09:56:48;;;;;;;11.98;6.00;;;;;;;16.22;100.00;100558.25;5033023;28;20029;-92
2023/07/31 09:59:16;;;;;;;11.85;7.00;;;;;;;16.28;100.00;100557.19;5035575;28;20080;-92
2023/07/31 10:01:43;;;;;;;13.77;6.10;;;;;;;16.36;100.00;100550.41;5035561;28;20124;-93
2023/07/31 10:04:12;;;;;;;11.13;5.82;;;;;;;16.48;100.00;100551.06;5037035;28;20033;-92
2023/07/31 10:06:39;;;;;;;11.48;5.70;;;;;;;16.61;100.00;100550.63;5035017;28;20104;-91
2023/07/31 10:09:11;;;;;;;8.93;5.78;;;;;;;16.71;100.00;100558.09;5019075;28;20030;-92
2023/07/31 10:11:55;;;;;;;9.68;4.95;;;;;;;16.83;100.00;100552.41;5035363;28;20040;-92
2023/07/31 10:14:23;;;;;;;11.20;5.13;;;;;;;17.07;100.00;100538.31;5035911;28;20128;-92
2023/07/31 10:16:52;;;;;;;10.15;4.97;;;;;;;17.23;100.00;100541.94;5035377;28;20477;-92
2023/07/31 10:19:24;;;;;;;8.95;4.75;;;;;;;17.33;100.00;100547.47;5034932;28;20033;-92
2023/07/31 10:21:52;;;;;;;11.38;4.35;;;;;;;17.32;100.00;100556.81;5035217;28;20049;-92
2023/07/31 10:24:30;;;;;;;10.38;4.10;;;;;;;17.35;100.00;100540.63;5034967;28;20049;-92
2023/07/31 10:26:58;;;;;;;7.77;3.80;;;;;;;17.42;100.00;100543.13;5035357;28;20026;-93
2023/07/31 10:29:29;;;;;;;7.45;3.75;;;;;;;17.45;100.00;100549.97;5035267;28;20029;-92
2023/07/31 10:32:18;;;;;;;8.73;4.38;;;;;;;17.41;100.00;100537.94;5035346;28;20033;-93
2023/07/31 10:34:43;;;;;;;7.20;3.58;;;;;;;17.41;100.00;100546.97;5036473;28;20401;-93
2023/07/31 10:37:45;;;;;;;5.82;3.63;;;;;;;17.39;100.00;100543.69;5036380;28;20037;-93
2023/07/31 10:40:16;;;;;;;9.63;3.63;;;;;;;17.42;100.00;100540.41;4979465;28;20022;-93
2023/07/31 10:43:02;;;;;;;7.32;3.35;;;;;;;17.39;100.00;100543.69;5035722;28;20045;-93
2023/07/31 10:45:38;;;;;;;8.43;3.85;;;;;;;17.41;100.00;100540.66;5035355;28;20374;-94
2023/07/31 10:48:15;;;;;;;7.57;3.70;;;;;;;17.45;100.00;100548.09;5035426;28;20052;-93
2023/07/31 10:51:03;;;;;;;7.57;3.60;;;;;;;17.64;100.00;100558.56;5034697;28;20125;-94
2023/07/31 10:53:35;;;;;;;8.03;3.57;;;;;;;17.67;100.00;100549.78;5035396;28;20061;-93
2023/07/31 10:56:04;;;;;;;6.80;3.90;;;;;;;17.66;100.00;100551.72;5019397;28;20045;-94
2023/07/31 10:58:33;;;;;;;9.93;4.00;;;;;;;17.69;100.00;100548.41;5035444;28;20064;-94
2023/07/31 11:01:02;;;;;;;8.57;3.50;;;;;;;17.77;100.00;100538.84;5035424;28;20033;-94
2023/07/31 11:03:52;;;;;;;6.80;3.85;;;;;;;17.99;100.00;100535.88;5035067;28;20483;-94
2023/07/31 11:06:31;;;;;;;5.07;3.47;;;;;;;18.21;100.00;100549.34;5034777;28;20087;-94
2023/07/31 11:08:59;;;;;;;6.20;4.10;;;;;;;18.45;100.00;100526.00;5035264;28;20037;-94
2023/07/31 11:11:27;;;;;;;6.80;4.30;;;;;;;18.50;100.00;100542.47;5034778;28;20037;-95
2023/07/31 11:14:01;;;;;;;13.45;3.67;;;;;;;18.30;100.00;100541.38;5034458;28;20053;-94
2023/07/31 11:16:32;;;;;;;7.53;3.35;;;;;;;18.11;100.00;100532.06;5034746;28;20033;-93
2023/07/31 11:18:57;;;;;;;6.30;3.60;;;;;;;18.10;100.00;100522.16;5034226;28;20029;-92
2023/07/31 11:21:27;;;;;;;4.55;3.35;;;;;;;18.29;100.00;100530.69;5034656;28;20037;-92
2023/07/31 11:23:56;;;;;;;9.73;3.80;;;;;;;18.36;100.00;100531.22;5033838;28;20064;-93
2023/07/31 11:26:24;;;;;;;7.27;4.17;;;;;;;18.36;100.00;100543.03;5034308;28;20037;-93
2023/07/31 11:28:50;;;;;;;7.78;4.10;;;;;;;18.54;100.00;100533.44;5034283;28;20361;-93
2023/07/31 11:31:19;;;;;;;6.30;4.25;;;;;;;18.97;100.00;100524.00;5035135;28;20028;-92
2023/07/31 11:33:44;;;;;;;7.22;3.63;;;;;;;19.48;100.00;100521.06;5033877;28;20079;-93
2023/07/31 11:36:25;;;;;;;6.93;3.67;;;;;;;19.73;100.00;100524.78;5033858;28;20037;-93
2023/07/31 11:38:52;;;;;;;5.05;3.20;;;;;;;19.74;100.00;100512.66;5033862;28;20029;-93
2023/07/31 11:41:21;;;;;;;5.30;2.97;;;;;;;19.48;100.00;100528.50;5034251;28;20029;-94
2023/07/31 11:43:47;;;;;;;5.55;2.90;;;;;;;19.19;100.00;100521.75;5035297;28;20095;-93
2023/07/31 11:46:21;;;;;;;5.40;2.80;;;;;;;19.18;100.00;100528.34;5034181;28;20460;-94
2023/07/31 11:48:52;;;;;;;4.22;2.65;;;;;;;19.01;100.00;100541.59;5034023;28;20025;-94
2023/07/31 11:51:20;;;;;;;4.00;2.78;;;;;;;18.90;100.00;100525.13;5018299;28;20463;-93
2023/07/31 11:53:50;;;;;;;4.38;2.67;;;;;;;18.85;100.00;100513.28;5033897;28;20464;-94
2023/07/31 11:56:21;;;;;;;4.65;2.95;;;;;;;18.77;100.00;100510.00;5034074;28;20029;-93
2023/07/31 11:58:52;;;;;;;5.83;3.10;;;;;;;18.61;100.00;100513.09;5033955;28;20029;-93
2023/07/31 12:01:20;;;;;;;6.20;3.15;;;;;;;18.43;100.00;100511.75;5033918;28;20156;-93
2023/07/31 12:03:47;;;;;;;7.68;3.10;;;;;;;18.33;100.00;100504.31;5033295;28;20032;-93
2023/07/31 12:06:13;;;;;;;6.25;3.28;;;;;;;18.34;100.00;100515.03;5033590;28;20129;-93
2023/07/31 12:08:40;;;;;;;6.27;3.33;;;;;;;18.23;100.00;100518.88;5033593;28;20068;-93
2023/07/31 12:11:13;;;;;;;7.43;3.88;;;;;;;18.10;100.00;100508.44;5033792;28;20029;-94
2023/07/31 12:13:41;;;;;;;5.85;3.42;;;;;;;18.14;100.00;100502.13;5041900;28;20029;-95
2023/07/31 12:16:09;;;;;;;7.27;3.57;;;;;;;18.15;100.00;100506.53;5040957;28;20091;-96
2023/07/31 12:18:38;;;;;;;6.72;3.60;;;;;;;17.99;100.00;100499.38;5032801;28;20048;-96
2023/07/31 12:21:18;;;;;;;7.65;3.50;;;;;;;17.67;100.00;100503.13;5033130;28;20033;-95
2023/07/31 12:23:54;;;;;;;7.00;3.70;;;;;;;17.49;100.00;100510.81;5016237;28;20498;-96
2023/07/31 12:26:30;;;;;;;;;;;;;;;;;;;;;
2023/07/31 12:29:17;;;;;;;8.53;4.40;;;;;;;17.52;100.00;100492.97;5034320;28;20025;-96
2023/07/31 12:35:06;;;;;;;10.73;4.95;;;;;;;17.28;100.00;100489.88;5047603;28;20056;-96
2023/07/31 12:37:49;;;;;;;;;;;;;;;;;;;;;
2023/07/31 12:56:46;;;;;;;9.90;4.87;;;;;;;17.46;100.00;100458.41;5462084;23;20048;31
2023/07/31 12:59:11;;;;;;;9.13;4.95;;;;;;;17.72;100.00;100462.00;4917679;29;20135;-92
2023/07/31 13:01:39;;;;;;;9.75;5.35;;;;;;;17.94;100.00;100458.19;4900877;29;20083;-93
2023/07/31 13:04:08;;;;;;;10.23;5.50;;;;;;;18.05;100.00;100462.59;4917490;29;20028;-91
2023/07/31 13:06:36;;;;;;;11.25;4.95;;;;;;;18.08;100.00;100451.06;4918092;29;20079;-87
2023/07/31 13:09:02;;;;;;;15.90;5.65;;;;;;;18.06;100.00;100453.28;4915852;29;20039;-87
2023/07/31 13:11:27;;;;;;;8.10;5.10;;;;;;;18.10;100.00;100456.28;4899881;29;20036;-87
2023/07/31 13:13:53;;;;;;;11.27;5.22;;;;;;;18.14;100.00;100457.38;4915789;29;20024;-87
2023/07/31 13:16:18;;;;;;;8.30;4.93;;;;;;;18.01;100.00;100459.59;4915534;29;20119;-87
2023/07/31 13:18:44;;;;;;;9.87;4.87;;;;;;;17.86;100.00;100463.13;4916553;29;20059;-87
2023/07/31 13:21:09;;;;;;;12.35;4.97;;;;;;;17.77;100.00;100450.22;4915892;29;20113;-87
2023/07/31 13:23:34;;;;;;;12.63;5.70;;;;;;;17.84;100.00;100439.78;4915846;29;20036;-88
2023/07/31 13:26:00;;;;;;;8.93;5.20;;;;;;;17.91;100.00;100451.34;4899708;29;20040;-88